Time;durP1;ratioP1;P1;durP2;ratioP2;P2;SDS_P1;SDS_P2;PMS_P1;PMS_P2;Temp;Humidity;BMP_temperature;BMP_pressure;BME280_temperature;BME280_humidity;BME280_pressure;Samples;Min_cycle;Max_cycle;Signal;HPM_P1;HPM_P2
2024/03/18 00:02:32;;;;;;;12.15;9.25;;;22.50;43.70;;;;;;10320748;28;20049;-64
2024/03/18 00:07:35;;;;;;;12.38;9.07;;;22.40;43.90;;;;;;10317062;28;20329;-64
2024/03/18 00:12:37;;;;;;;12.02;8.60;;;22.30;44.10;;;;;;10315671;28;20050;-63
2024/03/18 00:17:41;;;;;;;13.32;8.52;;;22.20;44.70;;;;;;10314836;28;20081;-64
2024/03/18 00:22:44;;;;;;;11.13;7.75;;;22.30;44.00;;;;;;10311330;28;20275;-63
2024/03/18 00:27:47;;;;;;;11.05;8.15;;;22.20;44.20;;;;;;10321843;28;20043;-63
2024/03/18 00:32:48;;;;;;;11.07;7.57;;;22.30;43.90;;;;;;10317134;28;20046;-63
2024/03/18 00:37:51;;;;;;;10.77;7.55;;;22.00;44.40;;;;;;10320238;28;20133;-63
2024/03/18 00:42:53;;;;;;;11.52;7.45;;;21.80;44.80;;;;;;10317246;28;20133;-65
2024/03/18 00:47:54;;;;;;;10.77;7.38;;;21.80;44.60;;;;;;10314269;28;20571;-62
2024/03/18 00:52:57;;;;;;;9.52;7.15;;;21.80;44.60;;;;;;10313765;28;20512;-63
2024/03/18 00:57:59;;;;;;;9.05;6.38;;;21.80;44.60;;;;;;10317534;28;20085;-63
2024/03/18 01:03:00;;;;;;;8.95;6.80;;;21.80;44.30;;;;;;10317828;28;20520;-63
2024/03/18 01:08:04;;;;;;;9.07;6.38;;;21.70;44.50;;;;;;10317846;28;20129;-63
2024/03/18 01:13:07;;;;;;;8.52;5.90;;;21.90;44.00;;;;;;10318913;28;20125;-63
2024/03/18 01:18:09;;;;;;;7.60;5.88;;;21.90;43.90;;;;;;10318327;28;20042;-62
2024/03/18 01:23:12;;;;;;;8.88;5.57;;;21.70;43.90;;;;;;10315238;28;20777;-63
2024/03/18 01:28:13;;;;;;;7.03;5.43;;;21.90;43.50;;;;;;10311227;28;20680;-63
2024/03/18 01:33:15;;;;;;;7.50;5.25;;;21.70;43.80;;;;;;10353305;28;20522;-69
2024/03/18 01:38:18;;;;;;;7.28;4.97;;;21.60;44.10;;;;;;10359047;28;20049;-62
2024/03/18 01:43:20;;;;;;;6.22;4.65;;;21.50;44.00;;;;;;10358153;28;20152;-62
2024/03/18 01:48:21;;;;;;;7.22;4.68;;;21.60;43.80;;;;;;10319723;28;20046;-64
2024/03/18 01:53:24;;;;;;;6.95;4.57;;;21.60;43.70;;;;;;10319685;28;20057;-64
2024/03/18 01:58:26;;;;;;;5.13;3.95;;;21.60;43.80;;;;;;10315536;28;20046;-63
2024/03/18 02:03:27;;;;;;;6.43;4.13;;;21.60;43.40;;;;;;10318995;28;20056;-63
2024/03/18 02:08:30;;;;;;;5.93;4.03;;;21.60;43.60;;;;;;10313601;28;20042;-63
2024/03/18 02:13:32;;;;;;;5.25;3.80;;;21.50;43.50;;;;;;10318858;28;20090;-64
2024/03/18 02:18:34;;;;;;;5.97;4.00;;;21.50;43.40;;;;;;10317769;28;20046;-64
2024/03/18 02:23:37;;;;;;;5.55;3.58;;;21.30;43.80;;;;;;10320465;28;20551;-64
2024/03/18 02:28:41;;;;;;;5.85;4.07;;;21.30;43.60;;;;;;10324277;28;20161;-64
2024/03/18 02:33:43;;;;;;;3.92;3.15;;;21.30;43.60;;;;;;10326820;28;20046;-63
2024/03/18 02:38:46;;;;;;;4.32;3.05;;;21.20;43.70;;;;;;10324156;28;20046;-64
2024/03/18 02:43:47;;;;;;;4.63;3.42;;;21.30;44.10;;;;;;10322764;28;20125;-63
2024/03/18 02:48:49;;;;;;;4.28;3.15;;;21.20;43.60;;;;;;10319863;28;20062;-63
2024/03/18 02:53:54;;;;;;;3.40;2.70;;;21.10;43.50;;;;;;10323184;28;20145;-63
2024/03/18 02:58:56;;;;;;;3.78;2.58;;;21.20;43.40;;;;;;10322414;28;20046;-64
2024/03/18 03:03:58;;;;;;;3.20;2.53;;;21.30;43.20;;;;;;10323741;28;20051;-63
2024/03/18 03:09:02;;;;;;;3.47;2.50;;;21.10;43.30;;;;;;10323825;28;20054;-63
2024/03/18 03:14:04;;;;;;;3.33;2.40;;;21.10;43.40;;;;;;10322338;28;20129;-63
2024/03/18 03:19:08;;;;;;;3.17;2.38;;;21.10;43.20;;;;;;10317569;28;20138;-63
2024/03/18 03:24:11;;;;;;;3.25;2.35;;;21.10;43.20;;;;;;10319999;28;20055;-63
2024/03/18 03:29:13;;;;;;;3.10;2.47;;;21.00;43.20;;;;;;10319702;28;20134;-63
2024/03/18 03:34:15;;;;;;;3.10;2.17;;;20.80;43.60;;;;;;10325647;28;20651;-63
2024/03/18 03:39:19;;;;;;;2.88;2.05;;;20.90;43.50;;;;;;10319136;28;20053;-63
2024/03/18 03:44:21;;;;;;;2.42;2.00;;;20.80;43.30;;;;;;10318114;28;20425;-63
2024/03/18 03:49:22;;;;;;;3.38;2.03;;;20.90;43.20;;;;;;10320641;28;20056;-63
2024/03/18 03:54:26;;;;;;;2.17;1.83;;;20.70;43.70;;;;;;10323095;28;20057;-63
2024/03/18 03:59:27;;;;;;;2.70;1.70;;;20.70;43.40;;;;;;10322099;28;20047;-65
2024/03/18 04:04:29;;;;;;;2.33;2.00;;;20.60;43.50;;;;;;10319105;28;20588;-66
2024/03/18 04:09:32;;;;;;;2.95;2.03;;;20.20;45.30;;;;;;10320454;28;20050;-66
2024/03/18 04:14:35;;;;;;;2.97;1.50;;;20.50;44.90;;;;;;10324091;28;20142;-66
2024/03/18 04:19:36;;;;;;;3.05;1.63;;;21.00;43.70;;;;;;10320209;28;20117;-66
2024/03/18 04:24:39;;;;;;;2.13;1.30;;;21.40;43.10;;;;;;10316568;28;20050;-65
2024/03/18 04:29:41;;;;;;;1.55;1.17;;;21.40;43.00;;;;;;10320057;28;20132;-63
2024/03/18 04:34:43;;;;;;;1.80;1.45;;;21.60;42.80;;;;;;10323110;28;20563;-66
2024/03/18 04:39:46;;;;;;;1.58;1.25;;;21.40;43.40;;;;;;10320314;28;20457;-65
2024/03/18 04:44:48;;;;;;;1.45;1.20;;;21.70;43.00;;;;;;10317548;28;20042;-63
2024/03/18 04:49:50;;;;;;;1.75;1.45;;;21.70;42.80;;;;;;10319253;28;20142;-64
2024/03/18 04:54:53;;;;;;;1.83;1.27;;;21.60;43.10;;;;;;10313028;28;20043;-64
2024/03/18 04:59:54;;;;;;;1.75;1.20;;;21.50;43.30;;;;;;10312934;28;20469;-65
2024/03/18 05:04:56;;;;;;;1.30;1.20;;;21.90;42.70;;;;;;10311211;28;20057;-66
2024/03/18 05:09:59;;;;;;;1.52;1.17;;;21.80;42.70;;;;;;10314994;28;20056;-63
2024/03/18 05:15:01;;;;;;;1.35;1.10;;;21.80;42.70;;;;;;10318632;28;20046;-64
2024/03/18 05:20:04;;;;;;;1.77;1.10;;;21.90;42.70;;;;;;10319023;28;20565;-64
2024/03/18 05:25:09;;;;;;;1.00;0.90;;;21.80;42.90;;;;;;10316835;28;20448;-65
2024/03/18 05:30:12;;;;;;;1.08;1.00;;;22.10;42.70;;;;;;10317192;28;20673;-65
2024/03/18 05:35:14;;;;;;;1.15;0.95;;;22.20;42.70;;;;;;10318233;28;20050;-64
2024/03/18 05:40:17;;;;;;;1.00;0.80;;;22.30;42.50;;;;;;10316296;28;20476;-64
2024/03/18 05:45:18;;;;;;;1.52;1.17;;;22.30;42.80;;;;;;10319262;28;20074;-59
2024/03/18 05:50:20;;;;;;;1.30;0.75;;;22.30;43.10;;;;;;10316839;28;20054;-62
2024/03/18 05:55:23;;;;;;;3.35;1.13;;;22.40;42.90;;;;;;10313880;28;20051;-64
2024/03/18 06:00:25;;;;;;;5.57;0.90;;;22.50;43.00;;;;;;10321416;28;20070;-57
2024/03/18 06:05:27;;;;;;;1.90;0.70;;;22.70;43.80;;;;;;10319614;28;20475;-64
2024/03/18 06:10:30;;;;;;;4.55;1.00;;;22.50;43.20;;;;;;10317597;28;20096;-64
2024/03/18 06:15:32;;;;;;;3.45;0.85;;;22.40;44.00;;;;;;10310705;28;20061;-62
2024/03/18 06:20:33;;;;;;;2.13;0.80;;;22.40;44.40;;;;;;10315867;28;20489;-64
2024/03/18 06:30:56;;;;;;;12.70;0.87;;;22.70;45.00;;;;;;10320218;28;20046;-65
2024/03/18 06:35:58;;;;;;;3.65;0.82;;;22.60;45.30;;;;;;10316977;28;20377;-62
2024/03/18 06:41:01;;;;;;;3.70;0.93;;;22.90;45.40;;;;;;10317296;28;20585;-62
2024/03/18 06:46:02;;;;;;;2.47;0.70;;;23.10;44.90;;;;;;10325339;28;20149;-61
2024/03/18 06:51:05;;;;;;;14.75;3.40;;;22.90;45.70;;;;;;10321707;28;20045;-63
2024/03/18 06:56:09;;;;;;;13.10;3.88;;;23.00;45.10;;;;;;10319104;28;20054;-62
2024/03/18 07:01:10;;;;;;;16.92;4.53;;;22.90;44.50;;;;;;10323874;28;20047;-61
2024/03/18 07:06:12;;;;;;;17.27;3.90;;;23.10;44.70;;;;;;10320993;28;20567;-62
2024/03/18 07:11:15;;;;;;;9.38;3.13;;;23.20;44.70;;;;;;10318033;28;20210;-62
2024/03/18 07:16:18;;;;;;;9.48;2.72;;;23.20;44.90;;;;;;10309183;28;20543;-61
2024/03/18 07:21:21;;;;;;;8.82;2.78;;;23.20;44.80;;;;;;10314489;28;20042;-62
2024/03/18 07:26:24;;;;;;;9.82;3.00;;;23.20;45.10;;;;;;10318849;28;20049;-62
2024/03/18 07:31:25;;;;;;;8.02;2.72;;;23.20;45.50;;;;;;10312133;28;20559;-63
2024/03/18 07:36:27;;;;;;;8.48;3.03;;;23.20;45.40;;;;;;10313432;28;20439;-60
2024/03/18 07:41:30;;;;;;;16.85;4.70;;;23.30;45.30;;;;;;10319877;28;20129;-63
2024/03/18 07:46:31;;;;;;;18.35;4.65;;;23.10;46.90;;;;;;10323129;28;20129;-62
2024/03/18 07:51:33;;;;;;;13.10;4.18;;;23.10;45.50;;;;;;10318217;28;20494;-59
2024/03/18 07:56:36;;;;;;;11.20;3.83;;;23.20;44.20;;;;;;10318530;28;20131;-63
2024/03/18 08:01:38;;;;;;;16.30;3.80;;;23.20;43.70;;;;;;10320864;28;20054;-62
2024/03/18 08:06:44;;;;;;;13.10;3.80;;;23.20;43.10;;;;;;10316279;28;20073;-63
2024/03/18 08:11:47;;;;;;;12.68;3.38;;;23.20;43.90;;;;;;10310744;28;20519;-63
2024/03/18 08:16:49;;;;;;;13.77;3.28;;;23.10;44.40;;;;;;10313251;28;20096;-63
2024/03/18 08:21:52;;;;;;;9.00;3.35;;;23.00;44.00;;;;;;10317482;28;20064;-62
2024/03/18 08:26:55;;;;;;;13.20;2.85;;;22.70;43.50;;;;;;10319349;28;20046;-60
2024/03/18 08:31:56;;;;;;;11.07;2.40;;;23.00;42.90;;;;;;10315444;28;20042;-63
2024/03/18 08:36:59;;;;;;;9.75;2.42;;;23.00;42.30;;;;;;10313818;28;20412;-63
2024/03/18 08:42:02;;;;;;;4.47;2.15;;;22.90;42.60;;;;;;10313480;28;20057;-62
2024/03/18 08:47:04;;;;;;;6.38;2.00;;;23.00;40.90;;;;;;10314178;28;20114;-64
2024/03/18 08:52:07;;;;;;;9.80;2.17;;;23.10;40.30;;;;;;10314512;28;20069;-63
2024/03/18 08:57:09;;;;;;;6.07;1.88;;;23.20;39.60;;;;;;10315441;28;20579;-64
2024/03/18 09:02:14;;;;;;;5.55;2.00;;;23.40;39.20;;;;;;10316679;28;20416;-64
2024/03/18 09:07:15;;;;;;;5.38;1.55;;;23.40;38.80;;;;;;10317133;28;20065;-63
2024/03/18 09:12:18;;;;;;;3.60;1.90;;;23.50;38.30;;;;;;10314696;28;20042;-63
2024/03/18 09:17:38;;;;;;;8.75;2.00;;;23.60;38.10;;;;;;10312852;28;20445;-63
2024/03/18 09:22:40;;;;;;;3.30;1.75;;;23.60;38.10;;;;;;10312082;28;20062;-62
2024/03/18 09:27:43;;;;;;;9.98;1.75;;;23.50;38.80;;;;;;10314740;28;20104;-63
2024/03/18 09:32:44;;;;;;;4.80;1.48;;;23.50;39.50;;;;;;10311134;28;20138;-65
2024/03/18 09:37:46;;;;;;;6.45;2.17;;;23.60;39.90;;;;;;10325504;28;20038;-62
2024/03/18 09:43:41;;;;;;;6.95;1.33;;;23.70;40.20;;;;;;10320925;28;20053;-61
2024/03/18 09:48:43;;;;;;;9.02;1.63;;;23.80;40.30;;;;;;10351630;28;20116;-62
2024/03/18 09:53:45;;;;;;;6.47;1.52;;;23.70;39.00;;;;;;10319628;28;20122;-63
2024/03/18 09:58:48;;;;;;;4.15;1.52;;;23.80;38.00;;;;;;10320199;28;20449;-63
2024/03/18 10:03:50;;;;;;;5.07;1.33;;;23.80;37.90;;;;;;10312338;28;20715;-64
2024/03/18 10:08:52;;;;;;;4.63;1.70;;;23.90;37.40;;;;;;10321335;28;20042;-62
2024/03/18 10:13:57;;;;;;;19.17;1.75;;;24.00;36.60;;;;;;10324691;28;20050;-63
2024/03/18 10:19:01;;;;;;;5.88;1.67;;;23.80;37.00;;;;;;10311153;28;20141;-62
2024/03/18 10:24:03;;;;;;;7.53;1.55;;;23.90;37.10;;;;;;10320031;28;20108;-63
2024/03/18 10:29:07;;;;;;;5.82;1.45;;;24.00;36.70;;;;;;10317855;28;20500;-62
2024/03/18 10:34:09;;;;;;;5.20;1.70;;;24.00;36.60;;;;;;10311479;28;20051;-64
2024/03/18 10:39:15;;;;;;;5.95;1.45;;;24.30;36.10;;;;;;10319389;28;20046;-63
2024/03/18 10:44:22;;;;;;;2.53;1.20;;;24.10;36.60;;;;;;10316902;28;20061;-63
2024/03/18 10:49:23;;;;;;;5.70;1.33;;;24.30;36.40;;;;;;10317731;28;20058;-61
2024/03/18 10:54:25;;;;;;;3.10;1.35;;;24.00;37.10;;;;;;10319180;28;20077;-62
2024/03/18 10:59:28;;;;;;;5.15;1.48;;;23.80;37.90;;;;;;10320321;28;20054;-60
2024/03/18 11:04:29;;;;;;;4.05;1.38;;;23.90;38.20;;;;;;10312738;28;20050;-64
2024/03/18 11:09:31;;;;;;;9.13;1.83;;;23.90;37.80;;;;;;10317236;28;20050;-63
2024/03/18 11:14:34;;;;;;;4.95;1.50;;;23.80;38.00;;;;;;10316822;28;20081;-62
2024/03/18 11:19:36;;;;;;;7.20;1.60;;;23.80;38.20;;;;;;10310420;28;20105;-59
2024/03/18 11:24:37;;;;;;;3.83;1.63;;;23.80;38.00;;;;;;10319887;28;20047;-62
2024/03/18 11:29:41;;;;;;;2.45;1.40;;;23.80;37.90;;;;;;10311087;28;20054;-64
2024/03/18 11:34:43;;;;;;;3.40;1.45;;;24.00;36.60;;;;;;10319230;28;20568;-60
2024/03/18 11:39:45;;;;;;;3.45;1.40;;;24.20;34.90;;;;;;10320911;28;20060;-61
2024/03/18 11:44:51;;;;;;;3.35;1.30;;;24.00;35.20;;;;;;10317878;28;20103;-62
2024/03/18 11:50:03;;;;;;;3.92;1.60;;;24.10;35.30;;;;;;10316522;28;20125;-63
2024/03/18 11:55:05;;;;;;;3.70;1.42;;;24.10;35.80;;;;;;10319819;28;20125;-63
2024/03/18 12:00:12;;;;;;;3.50;1.25;;;24.30;35.80;;;;;;10319347;28;20149;-61
2024/03/18 12:05:13;;;;;;;6.93;1.60;;;24.10;36.40;;;;;;10316647;28;20054;-61
2024/03/18 12:10:18;;;;;;;5.47;1.40;;;23.80;36.90;;;;;;10319086;28;20080;-61
2024/03/18 12:15:21;;;;;;;8.68;2.00;;;24.30;37.40;;;;;;10314282;28;20052;-62
2024/03/18 12:20:24;;;;;;;5.85;1.55;;;24.30;37.60;;;;;;10313434;28;20043;-65
2024/03/18 12:30:55;;;;;;;4.22;1.67;;;24.50;34.40;;;;;;10320102;28;20042;-65
2024/03/18 12:35:58;;;;;;;3.10;1.48;;;24.30;34.60;;;;;;10309041;28;20042;-64
2024/03/18 12:41:00;;;;;;;5.97;1.60;;;24.30;35.20;;;;;;10316213;28;20505;-65
2024/03/18 12:46:03;;;;;;;7.72;2.08;;;24.40;35.10;;;;;;10316354;28;20137;-63
2024/03/18 12:51:05;;;;;;;3.15;1.48;;;24.30;35.00;;;;;;10340265;28;20480;-64
2024/03/18 12:56:08;;;;;;;3.78;1.58;;;24.20;35.30;;;;;;10338504;28;20138;-65
2024/03/18 13:01:11;;;;;;;7.93;1.50;;;24.30;33.90;;;;;;10312148;28;20146;-64
2024/03/18 13:06:13;;;;;;;10.65;2.08;;;24.20;34.50;;;;;;10315208;28;20571;-64
2024/03/18 13:11:16;;;;;;;6.50;2.13;;;24.00;34.80;;;;;;10305378;28;20042;-62
2024/03/18 13:16:19;;;;;;;8.15;1.70;;;24.40;35.00;;;;;;10319073;28;20057;-62
2024/03/18 13:21:20;;;;;;;5.75;1.50;;;24.40;35.40;;;;;;10336327;28;20046;-61
2024/03/18 13:26:24;;;;;;;6.40;1.58;;;24.50;35.80;;;;;;10358843;28;20077;-62
2024/03/18 13:31:27;;;;;;;7.90;1.40;;;24.40;36.30;;;;;;10328674;28;20509;-58
2024/03/18 13:36:29;;;;;;;3.47;1.33;;;24.30;36.80;;;;;;10316259;28;20524;-60
2024/03/18 13:41:32;;;;;;;8.45;1.33;;;24.20;37.10;;;;;;10314804;28;20050;-59
2024/03/18 13:46:35;;;;;;;8.85;1.42;;;24.00;37.80;;;;;;10316572;28;20137;-60
2024/03/18 13:51:37;;;;;;;6.05;1.30;;;24.20;37.80;;;;;;10316479;28;20054;-60
2024/03/18 13:56:39;;;;;;;13.80;1.95;;;24.10;37.90;;;;;;10315742;28;20670;-59
2024/03/18 14:01:43;;;;;;;8.43;1.25;;;24.50;38.30;;;;;;10334683;28;20052;-61
2024/03/18 14:06:44;;;;;;;7.25;1.27;;;24.50;38.50;;;;;;10352068;28;20420;-58
2024/03/18 14:11:46;;;;;;;3.90;1.27;;;24.60;38.70;;;;;;10329409;28;20472;-58
2024/03/18 14:16:49;;;;;;;7.90;1.30;;;24.50;39.20;;;;;;10316535;28;20043;-61
2024/03/18 14:21:51;;;;;;;4.60;1.20;;;24.60;39.50;;;;;;10319747;28;20086;-60
2024/03/18 14:26:53;;;;;;;6.28;1.40;;;24.70;39.80;;;;;;10321266;28;20057;-58
2024/03/18 14:31:56;;;;;;;7.13;1.50;;;24.80;39.80;;;;;;10322445;28;20509;-57
2024/03/18 14:36:59;;;;;;;7.28;1.70;;;24.90;40.00;;;;;;10321659;28;20101;-59
2024/03/18 14:42:00;;;;;;;4.15;1.50;;;24.90;35.00;;;;;;10314796;28;20523;-57
2024/03/18 14:47:04;;;;;;;5.15;1.50;;;24.40;33.40;;;;;;10316102;28;20589;-59
2024/03/18 14:52:09;;;;;;;5.05;1.60;;;24.40;34.40;;;;;;10319337;28;20050;-60
2024/03/18 14:57:10;;;;;;;7.45;1.30;;;24.80;36.20;;;;;;10304836;28;20374;-61
2024/03/18 15:02:13;;;;;;;9.15;1.25;;;25.10;36.70;;;;;;10323195;28;20145;-62
2024/03/18 15:07:17;;;;;;;4.47;1.38;;;24.90;36.80;;;;;;10323139;28;20136;-59
2024/03/18 15:12:19;;;;;;;5.35;1.20;;;24.60;37.50;;;;;;10314757;28;20050;-62
2024/03/18 15:17:22;;;;;;;2.60;1.02;;;24.40;38.00;;;;;;10308794;28;20129;-61
2024/03/18 15:22:25;;;;;;;3.22;1.10;;;24.20;38.50;;;;;;10316058;28;20697;-59
2024/03/18 15:32:47;;;;;;;3.20;1.10;;;24.10;39.10;;;;;;10319798;28;20047;-61
2024/03/18 15:37:51;;;;;;;1.77;0.90;;;24.00;39.50;;;;;;10320967;28;20121;-62
2024/03/18 15:42:52;;;;;;;1.30;1.00;;;24.00;39.60;;;;;;10310454;28;20047;-60
2024/03/18 15:47:55;;;;;;;1.63;0.93;;;23.80;39.90;;;;;;10309720;28;20493;-62
2024/03/18 15:52:57;;;;;;;1.85;1.10;;;23.80;40.10;;;;;;10314750;28;20493;-60
2024/03/18 15:57:59;;;;;;;0.85;0.85;;;23.80;40.30;;;;;;10314881;28;20173;-62
2024/03/18 16:03:03;;;;;;;3.38;0.90;;;23.70;40.50;;;;;;10309125;28;20141;-62
2024/03/18 16:08:06;;;;;;;2.85;0.88;;;23.70;40.60;;;;;;10314046;28;20049;-62
2024/03/18 16:13:07;;;;;;;1.25;0.88;;;23.60;40.70;;;;;;10311756;28;20113;-62
2024/03/18 16:18:10;;;;;;;1.60;0.90;;;23.60;40.80;;;;;;10314880;28;20142;-61
2024/03/18 16:23:12;;;;;;;2.53;1.00;;;23.50;41.00;;;;;;10309634;28;20050;-63
2024/03/18 16:28:13;;;;;;;2.58;0.80;;;23.50;41.80;;;;;;10315316;28;20488;-61
2024/03/18 16:33:16;;;;;;;3.10;0.82;;;23.50;40.80;;;;;;10316110;28;20152;-60
2024/03/18 16:38:18;;;;;;;2.35;0.80;;;23.50;39.90;;;;;;10313391;28;20077;-61
2024/03/18 16:43:19;;;;;;;1.23;0.80;;;23.60;40.10;;;;;;10313066;28;20638;-61
2024/03/18 16:48:23;;;;;;;2.10;1.00;;;23.40;40.30;;;;;;10313365;28;20125;-61
2024/03/18 16:53:24;;;;;;;1.10;0.80;;;23.50;40.00;;;;;;10307620;28;20524;-60
2024/03/18 16:58:28;;;;;;;3.13;0.80;;;23.50;40.60;;;;;;10308183;28;20050;-62
2024/03/18 17:03:31;;;;;;;4.75;0.98;;;23.60;41.00;;;;;;10313667;28;20047;-61
2024/03/18 17:08:33;;;;;;;6.10;1.30;;;23.80;41.50;;;;;;10315003;28;20069;-62
2024/03/18 17:13:34;;;;;;;6.65;1.30;;;24.20;42.80;;;;;;10309905;28;20481;-61
2024/03/18 17:18:37;;;;;;;9.63;1.30;;;24.10;42.50;;;;;;10324221;28;20125;-60
2024/03/18 17:23:39;;;;;;;6.28;1.20;;;24.10;42.80;;;;;;10352486;28;20405;-63
2024/03/18 17:28:41;;;;;;;5.07;1.15;;;23.90;43.10;;;;;;10315810;28;20145;-60
2024/03/18 17:33:45;;;;;;;4.90;1.20;;;23.90;43.20;;;;;;10316454;28;20499;-60
2024/03/18 17:38:48;;;;;;;4.05;1.17;;;24.00;43.60;;;;;;10316391;28;20057;-60
2024/03/18 17:43:49;;;;;;;7.80;1.10;;;24.00;43.60;;;;;;10313168;28;20058;-60
2024/03/18 17:48:52;;;;;;;9.68;1.60;;;24.20;44.30;;;;;;10313942;28;20472;-60
2024/03/18 17:53:54;;;;;;;8.25;1.98;;;24.20;44.90;;;;;;10314722;28;20085;-59
2024/03/18 17:58:56;;;;;;;4.82;1.30;;;24.00;45.20;;;;;;10320115;28;20145;-56
2024/03/18 18:03:59;;;;;;;8.43;1.60;;;24.00;45.70;;;;;;10320903;28;20138;-58
2024/03/18 18:09:05;;;;;;;7.53;1.40;;;23.90;45.70;;;;;;10322020;28;20049;-60
2024/03/18 18:14:07;;;;;;;5.07;1.50;;;23.90;45.70;;;;;;10318993;28;20050;-59
2024/03/18 18:19:10;;;;;;;7.93;1.30;;;23.90;46.00;;;;;;10317143;28;20481;-61
2024/03/18 18:24:11;;;;;;;5.80;1.50;;;24.20;45.60;;;;;;10326745;28;20133;-62
2024/03/18 18:29:15;;;;;;;8.52;1.38;;;24.10;45.80;;;;;;10364812;28;20104;-56
2024/03/18 18:34:18;;;;;;;4.53;1.30;;;24.30;45.20;;;;;;10357449;28;20046;-57
2024/03/18 18:39:23;;;;;;;9.70;1.80;;;23.80;45.40;;;;;;10361895;28;20046;-56
2024/03/18 18:44:25;;;;;;;5.35;1.20;;;23.60;45.70;;;;;;10364761;28;20463;-55
2024/03/18 18:49:28;;;;;;;7.07;1.23;;;23.40;45.80;;;;;;10364754;28;20423;-55
2024/03/18 18:54:30;;;;;;;4.03;1.13;;;23.50;45.90;;;;;;10362895;28;20129;-60
2024/03/18 18:59:32;;;;;;;3.83;1.10;;;23.40;45.70;;;;;;10353004;28;20050;-59
2024/03/18 19:04:35;;;;;;;3.83;1.00;;;23.30;45.70;;;;;;10313936;28;20504;-58
2024/03/18 19:09:37;;;;;;;3.90;1.17;;;23.30;45.80;;;;;;10337984;28;20054;-56
2024/03/18 19:14:39;;;;;;;2.88;1.10;;;23.50;45.60;;;;;;10348906;28;20128;-60
2024/03/18 19:19:45;;;;;;;4.50;1.23;;;23.50;45.50;;;;;;10351417;28;20051;-58
2024/03/18 19:24:46;;;;;;;4.47;1.35;;;23.40;45.40;;;;;;10318541;28;20046;-58
2024/03/18 19:29:51;;;;;;;3.58;0.98;;;23.30;45.40;;;;;;10321671;28;20520;-56
2024/03/18 19:34:54;;;;;;;3.63;1.25;;;23.30;45.30;;;;;;10354513;28;20088;-57
2024/03/18 19:39:57;;;;;;;5.32;1.17;;;23.30;45.00;;;;;;10360365;28;20073;-56
2024/03/18 19:44:58;;;;;;;4.05;1.13;;;23.10;45.20;;;;;;10356416;28;20050;-56
2024/03/18 19:50:04;;;;;;;4.90;1.20;;;23.10;45.40;;;;;;10344860;28;20130;-64
2024/03/18 19:55:07;;;;;;;2.78;1.10;;;23.10;45.30;;;;;;10308757;28;20058;-61
2024/03/18 20:00:12;;;;;;;3.47;1.08;;;23.10;45.40;;;;;;10314462;28;20047;-57
2024/03/18 20:05:15;;;;;;;2.20;1.10;;;23.10;45.40;;;;;;10315426;28;20062;-58
2024/03/18 20:10:17;;;;;;;2.88;1.10;;;23.10;45.40;;;;;;10309184;28;20052;-57
2024/03/18 20:15:19;;;;;;;1.77;1.00;;;23.20;45.30;;;;;;10307069;28;20053;-59
2024/03/18 20:20:22;;;;;;;5.22;1.00;;;23.20;45.30;;;;;;10308851;28;20157;-56
2024/03/18 20:25:23;;;;;;;1.52;0.80;;;23.00;45.40;;;;;;10306312;28;20661;-60
2024/03/18 20:30:26;;;;;;;0.95;0.90;;;23.00;45.40;;;;;;10316109;28;20043;-61
2024/03/18 20:35:29;;;;;;;2.97;0.88;;;23.60;44.40;;;;;;10314563;28;20069;-58
2024/03/18 20:40:31;;;;;;;3.28;1.02;;;23.30;44.70;;;;;;10315855;28;20042;-55
2024/03/18 20:45:32;;;;;;;7.22;1.20;;;23.00;45.40;;;;;;10317265;28;20133;-58
2024/03/18 20:50:36;;;;;;;1.02;0.70;;;22.80;45.70;;;;;;10322106;28;20056;-60
2024/03/18 20:55:37;;;;;;;1.70;0.98;;;22.80;46.00;;;;;;10323789;28;20108;-57
2024/03/18 21:00:39;;;;;;;1.50;0.90;;;22.70;46.20;;;;;;10317783;28;20133;-59
2024/03/18 21:05:42;;;;;;;2.63;1.30;;;22.60;46.50;;;;;;10318407;28;20051;-57
2024/03/18 21:10:43;;;;;;;6.63;1.10;;;22.70;46.40;;;;;;10321827;28;20046;-59
2024/03/18 21:15:45;;;;;;;7.10;1.40;;;22.50;46.40;;;;;;10320916;28;20140;-58
2024/03/18 21:20:48;;;;;;;1.75;1.27;;;22.60;46.30;;;;;;10316328;28;20049;-57
2024/03/18 21:25:50;;;;;;;2.65;1.20;;;22.70;46.20;;;;;;10313611;28;20052;-58
2024/03/18 21:30:52;;;;;;;2.40;1.27;;;22.60;46.20;;;;;;10317479;28;20536;-55
2024/03/18 21:35:55;;;;;;;1.70;1.17;;;22.70;45.70;;;;;;10315629;28;20089;-57
2024/03/18 21:41:00;;;;;;;2.45;1.17;;;22.40;46.30;;;;;;10324671;28;20153;-59
2024/03/18 21:46:02;;;;;;;2.20;1.30;;;22.50;46.30;;;;;;10316762;28;20054;-54
2024/03/18 21:51:06;;;;;;;2.45;1.40;;;22.30;46.60;;;;;;10317807;28;20055;-57
2024/03/18 21:56:08;;;;;;;1.85;1.40;;;22.20;46.70;;;;;;10320824;28;20082;-56
2024/03/18 22:01:09;;;;;;;2.25;1.40;;;22.00;47.10;;;;;;10323221;28;20141;-58
2024/03/18 22:06:12;;;;;;;2.10;1.40;;;22.00;47.00;;;;;;10321799;28;20053;-57
2024/03/18 22:11:14;;;;;;;3.70;1.40;;;22.00;47.00;;;;;;10328124;28;20050;-56
2024/03/18 22:16:16;;;;;;;1.63;1.50;;;21.90;47.00;;;;;;10326244;28;20046;-55
2024/03/18 22:21:19;;;;;;;1.80;1.52;;;21.80;47.30;;;;;;10324127;28;20491;-53
2024/03/18 22:26:21;;;;;;;2.53;1.50;;;21.80;47.00;;;;;;10318817;28;20058;-57
2024/03/18 22:31:22;;;;;;;2.95;1.83;;;21.90;46.90;;;;;;10322056;28;20070;-55
2024/03/18 22:36:26;;;;;;;2.17;1.70;;;21.80;46.90;;;;;;10317903;28;20424;-57
2024/03/18 22:41:28;;;;;;;4.57;1.90;;;22.20;46.10;;;;;;10313231;28;20129;-59
2024/03/18 22:46:29;;;;;;;2.13;1.92;;;22.50;45.00;;;;;;10319743;28;20129;-58
2024/03/18 22:51:32;;;;;;;2.28;2.03;;;22.40;45.00;;;;;;10323548;28;20061;-54
2024/03/18 22:56:34;;;;;;;3.45;2.20;;;22.50;44.80;;;;;;10320801;28;20089;-59
2024/03/18 23:01:36;;;;;;;2.97;2.20;;;22.00;45.80;;;;;;10313863;28;20074;-58
2024/03/18 23:06:39;;;;;;;2.58;2.05;;;21.80;46.20;;;;;;10314698;28;20154;-55
2024/03/18 23:11:40;;;;;;;5.32;2.28;;;22.10;45.60;;;;;;10314561;28;20046;-59
2024/03/18 23:16:42;;;;;;;2.20;2.00;;;22.50;44.30;;;;;;10323327;28;20072;-57
2024/03/18 23:21:45;;;;;;;2.45;2.17;;;22.70;43.60;;;;;;10321410;28;20053;-58
2024/03/18 23:26:47;;;;;;;4.68;2.30;;;22.90;43.20;;;;;;10324891;28;20109;-59
2024/03/18 23:31:49;;;;;;;2.47;2.05;;;23.00;42.90;;;;;;10321884;28;20386;-57
2024/03/18 23:36:52;;;;;;;4.25;2.17;;;22.90;42.90;;;;;;10315862;28;20146;-58
2024/03/18 23:41:53;;;;;;;2.60;1.90;;;22.90;42.80;;;;;;10310025;28;20142;-59
2024/03/18 23:46:56;;;;;;;2.88;2.25;;;22.80;42.60;;;;;;10322589;28;20144;-58
2024/03/18 23:51:58;;;;;;;3.60;2.20;;;22.70;42.70;;;;;;10320366;28;20481;-59
2024/03/18 23:57:00;;;;;;;2.88;1.95;;;22.80;42.60;;;;;;10321174;28;20479;-59
